sensor_id;sensor_type;location;lat;lon;timestamp;temperature;humidity
71177;DHT22;58877;51.992;4.504;2023-07-08T00:00:56;22.93;51.40
71177;DHT22;58877;51.992;4.504;2023-07-08T00:03:21;22.87;51.24
71177;DHT22;58877;51.992;4.504;2023-07-08T00:05:50;22.86;51.69
71177;DHT22;58877;51.992;4.504;2023-07-08T00:08:22;22.80;51.59
71177;DHT22;58877;51.992;4.504;2023-07-08T00:10:48;22.77;51.75
71177;DHT22;58877;51.992;4.504;2023-07-08T00:13:14;22.77;52.52
71177;DHT22;58877;51.992;4.504;2023-07-08T00:15:40;22.72;52.35
71177;DHT22;58877;51.992;4.504;2023-07-08T00:18:16;22.72;52.25
71177;DHT22;58877;51.992;4.504;2023-07-08T00:20:48;22.66;52.41
71177;DHT22;58877;51.992;4.504;2023-07-08T00:23:17;22.62;53.03
71177;DHT22;58877;51.992;4.504;2023-07-08T00:25:49;22.60;52.95
71177;DHT22;58877;51.992;4.504;2023-07-08T00:28:20;22.59;52.76
71177;DHT22;58877;51.992;4.504;2023-07-08T00:30:48;22.53;52.14
71177;DHT22;58877;51.992;4.504;2023-07-08T00:33:14;22.53;53.74
71177;DHT22;58877;51.992;4.504;2023-07-08T00:35:44;22.46;54.33
71177;DHT22;58877;51.992;4.504;2023-07-08T00:40:52;22.32;55.21
71177;DHT22;58877;51.992;4.504;2023-07-08T00:43:35;22.22;55.54
71177;DHT22;58877;51.992;4.504;2023-07-08T00:51:38;21.92;56.19
71177;DHT22;58877;51.992;4.504;2023-07-08T00:54:14;21.89;56.28
71177;DHT22;58877;51.992;4.504;2023-07-08T00:56:43;21.87;56.36
71177;DHT22;58877;51.992;4.504;2023-07-08T00:59:21;21.78;56.30
71177;DHT22;58877;51.992;4.504;2023-07-08T01:01:48;21.73;56.32
71177;DHT22;58877;51.992;4.504;2023-07-08T01:04:22;21.71;56.40
71177;DHT22;58877;51.992;4.504;2023-07-08T01:06:55;21.62;57.50
71177;DHT22;58877;51.992;4.504;2023-07-08T01:09:28;21.59;56.92
71177;DHT22;58877;51.992;4.504;2023-07-08T01:12:02;21.57;56.58
71177;DHT22;58877;51.992;4.504;2023-07-08T01:14:35;21.55;56.72
71177;DHT22;58877;51.992;4.504;2023-07-08T01:17:13;21.53;56.96
71177;DHT22;58877;51.992;4.504;2023-07-08T01:19:40;21.53;56.51
71177;DHT22;58877;51.992;4.504;2023-07-08T01:22:09;21.50;56.39
71177;DHT22;58877;51.992;4.504;2023-07-08T01:24:41;21.47;56.36
71177;DHT22;58877;51.992;4.504;2023-07-08T01:27:12;21.47;57.01
71177;DHT22;58877;51.992;4.504;2023-07-08T01:29:38;21.47;56.89
71177;DHT22;58877;51.992;4.504;2023-07-08T01:32:04;21.44;56.87
71177;DHT22;58877;51.992;4.504;2023-07-08T01:34:36;21.44;57.58
71177;DHT22;58877;51.992;4.504;2023-07-08T01:37:05;21.41;57.09
71177;DHT22;58877;51.992;4.504;2023-07-08T01:39:32;21.37;56.89
71177;DHT22;58877;51.992;4.504;2023-07-08T01:41:58;21.41;56.63
71177;DHT22;58877;51.992;4.504;2023-07-08T01:44:29;21.37;56.78
71177;DHT22;58877;51.992;4.504;2023-07-08T01:47:10;21.35;57.29
71177;DHT22;58877;51.992;4.504;2023-07-08T01:49:38;21.30;57.71
71177;DHT22;58877;51.992;4.504;2023-07-08T01:52:09;21.30;57.23
71177;DHT22;58877;51.992;4.504;2023-07-08T01:54:39;21.22;56.32
71177;DHT22;58877;51.992;4.504;2023-07-08T01:57:06;21.22;57.63
71177;DHT22;58877;51.992;4.504;2023-07-08T01:59:35;21.17;58.09
71177;DHT22;58877;51.992;4.504;2023-07-08T02:02:03;21.13;56.37
71177;DHT22;58877;51.992;4.504;2023-07-08T02:04:29;21.11;58.12
71177;DHT22;58877;51.992;4.504;2023-07-08T02:06:58;21.02;57.03
71177;DHT22;58877;51.992;4.504;2023-07-08T02:09:25;20.90;58.43
71177;DHT22;58877;51.992;4.504;2023-07-08T02:11:52;20.80;57.95
71177;DHT22;58877;51.992;4.504;2023-07-08T02:14:21;20.63;59.10
71177;DHT22;58877;51.992;4.504;2023-07-08T02:16:47;20.57;59.86
71177;DHT22;58877;51.992;4.504;2023-07-08T02:19:15;20.39;59.61
71177;DHT22;58877;51.992;4.504;2023-07-08T02:21:40;20.36;59.90
71177;DHT22;58877;51.992;4.504;2023-07-08T02:24:06;20.22;60.52
71177;DHT22;58877;51.992;4.504;2023-07-08T02:26:34;20.18;61.58
71177;DHT22;58877;51.992;4.504;2023-07-08T02:29:00;20.15;60.89
71177;DHT22;58877;51.992;4.504;2023-07-08T02:31:28;20.01;61.26
71177;DHT22;58877;51.992;4.504;2023-07-08T02:33:54;19.74;61.97
71177;DHT22;58877;51.992;4.504;2023-07-08T02:36:22;19.70;62.24
71177;DHT22;58877;51.992;4.504;2023-07-08T02:38:51;19.70;62.71
71177;DHT22;58877;51.992;4.504;2023-07-08T02:41:19;19.58;63.13
71177;DHT22;58877;51.992;4.504;2023-07-08T02:43:48;19.55;63.58
71177;DHT22;58877;51.992;4.504;2023-07-08T02:46:13;19.43;63.82
71177;DHT22;58877;51.992;4.504;2023-07-08T02:48:39;19.37;63.90
71177;DHT22;58877;51.992;4.504;2023-07-08T02:51:05;19.33;64.17
71177;DHT22;58877;51.992;4.504;2023-07-08T02:53:35;19.27;64.35
71177;DHT22;58877;51.992;4.504;2023-07-08T02:56:01;19.22;64.63
71177;DHT22;58877;51.992;4.504;2023-07-08T02:58:26;19.22;64.67
71177;DHT22;58877;51.992;4.504;2023-07-08T03:00:56;19.17;64.83
71177;DHT22;58877;51.992;4.504;2023-07-08T03:03:29;19.14;65.01
71177;DHT22;58877;51.992;4.504;2023-07-08T03:06:01;19.07;65.28
71177;DHT22;58877;51.992;4.504;2023-07-08T03:08:33;19.09;66.01
71177;DHT22;58877;51.992;4.504;2023-07-08T03:11:01;19.10;65.65
71177;DHT22;58877;51.992;4.504;2023-07-08T03:13:28;19.02;65.78
71177;DHT22;58877;51.992;4.504;2023-07-08T03:15:54;19.00;66.23
71177;DHT22;58877;51.992;4.504;2023-07-08T03:18:21;18.99;66.19
71177;DHT22;58877;51.992;4.504;2023-07-08T03:20:49;19.00;66.69
71177;DHT22;58877;51.992;4.504;2023-07-08T03:23:17;19.02;65.97
71177;DHT22;58877;51.992;4.504;2023-07-08T03:25:49;19.00;65.90
71177;DHT22;58877;51.992;4.504;2023-07-08T03:28:15;19.04;66.57
71177;DHT22;58877;51.992;4.504;2023-07-08T03:30:44;19.04;66.18
71177;DHT22;58877;51.992;4.504;2023-07-08T03:33:11;19.02;66.49
71177;DHT22;58877;51.992;4.504;2023-07-08T03:35:38;19.02;67.19
71177;DHT22;58877;51.992;4.504;2023-07-08T03:38:06;19.06;67.27
71177;DHT22;58877;51.992;4.504;2023-07-08T03:40:32;19.06;65.87
71177;DHT22;58877;51.992;4.504;2023-07-08T03:42:57;18.99;66.05
71177;DHT22;58877;51.992;4.504;2023-07-08T03:45:24;18.90;66.49
71177;DHT22;58877;51.992;4.504;2023-07-08T03:47:53;18.66;67.33
71177;DHT22;58877;51.992;4.504;2023-07-08T03:50:26;18.63;67.60
71177;DHT22;58877;51.992;4.504;2023-07-08T03:52:56;18.68;67.75
71177;DHT22;58877;51.992;4.504;2023-07-08T03:55:28;18.63;67.70
71177;DHT22;58877;51.992;4.504;2023-07-08T03:57:59;18.65;67.66
71177;DHT22;58877;51.992;4.504;2023-07-08T04:00:25;18.68;67.64
71177;DHT22;58877;51.992;4.504;2023-07-08T04:02:53;18.79;67.91
71177;DHT22;58877;51.992;4.504;2023-07-08T04:05:28;18.77;67.21
71177;DHT22;58877;51.992;4.504;2023-07-08T04:07:56;18.66;67.85
71177;DHT22;58877;51.992;4.504;2023-07-08T04:10:24;18.63;67.94
71177;DHT22;58877;51.992;4.504;2023-07-08T04:12:50;18.70;68.21
71177;DHT22;58877;51.992;4.504;2023-07-08T04:15:24;18.75;68.44
71177;DHT22;58877;51.992;4.504;2023-07-08T04:17:51;18.82;68.86
71177;DHT22;58877;51.992;4.504;2023-07-08T04:20:19;18.90;69.01
71177;DHT22;58877;51.992;4.504;2023-07-08T04:22:45;18.98;69.11
71177;DHT22;58877;51.992;4.504;2023-07-08T04:25:14;18.98;68.20
71177;DHT22;58877;51.992;4.504;2023-07-08T04:27:40;19.02;67.63
71177;DHT22;58877;51.992;4.504;2023-07-08T04:30:09;18.99;67.32
71177;DHT22;58877;51.992;4.504;2023-07-08T04:32:36;19.06;67.19
71177;DHT22;58877;51.992;4.504;2023-07-08T04:35:03;19.09;68.16
71177;DHT22;58877;51.992;4.504;2023-07-08T04:37:28;19.07;67.56
71177;DHT22;58877;51.992;4.504;2023-07-08T04:39:57;19.09;67.58
71177;DHT22;58877;51.992;4.504;2023-07-08T04:42:22;19.10;67.26
71177;DHT22;58877;51.992;4.504;2023-07-08T04:44:48;19.10;67.74
71177;DHT22;58877;51.992;4.504;2023-07-08T04:47:14;19.20;67.47
71177;DHT22;58877;51.992;4.504;2023-07-08T04:49:45;19.19;68.29
71177;DHT22;58877;51.992;4.504;2023-07-08T04:52:12;19.30;68.38
71177;DHT22;58877;51.992;4.504;2023-07-08T04:54:38;19.34;66.81
71177;DHT22;58877;51.992;4.504;2023-07-08T04:57:04;19.41;67.44
71177;DHT22;58877;51.992;4.504;2023-07-08T04:59:29;19.38;66.43
71177;DHT22;58877;51.992;4.504;2023-07-08T05:02:05;19.31;66.53
71177;DHT22;58877;51.992;4.504;2023-07-08T05:04:33;19.28;66.43
71177;DHT22;58877;51.992;4.504;2023-07-08T05:06:59;19.43;66.30
71177;DHT22;58877;51.992;4.504;2023-07-08T05:09:24;19.50;66.54
71177;DHT22;58877;51.992;4.504;2023-07-08T05:11:55;19.60;66.93
71177;DHT22;58877;51.992;4.504;2023-07-08T05:14:26;19.64;65.82
71177;DHT22;58877;51.992;4.504;2023-07-08T05:16:52;19.75;67.22
71177;DHT22;58877;51.992;4.504;2023-07-08T05:19:18;19.87;65.70
71177;DHT22;58877;51.992;4.504;2023-07-08T05:21:46;19.87;65.40
71177;DHT22;58877;51.992;4.504;2023-07-08T05:24:13;19.98;66.86
71177;DHT22;58877;51.992;4.504;2023-07-08T05:26:42;20.14;66.77
71177;DHT22;58877;51.992;4.504;2023-07-08T05:29:10;20.29;66.19
71177;DHT22;58877;51.992;4.504;2023-07-08T05:31:39;20.38;65.27
71177;DHT22;58877;51.992;4.504;2023-07-08T05:34:04;20.46;64.80
71177;DHT22;58877;51.992;4.504;2023-07-08T05:36:30;20.56;64.55
71177;DHT22;58877;51.992;4.504;2023-07-08T05:38:56;20.69;64.09
71177;DHT22;58877;51.992;4.504;2023-07-08T05:41:22;20.73;62.72
71177;DHT22;58877;51.992;4.504;2023-07-08T05:43:48;20.84;62.75
71177;DHT22;58877;51.992;4.504;2023-07-08T05:46:14;21.00;62.42
71177;DHT22;58877;51.992;4.504;2023-07-08T05:48:40;21.00;61.87
71177;DHT22;58877;51.992;4.504;2023-07-08T05:51:06;20.99;61.87
71177;DHT22;58877;51.992;4.504;2023-07-08T05:53:31;21.19;62.08
71177;DHT22;58877;51.992;4.504;2023-07-08T05:55:57;21.34;61.32
71177;DHT22;58877;51.992;4.504;2023-07-08T05:58:22;21.43;61.24
71177;DHT22;58877;51.992;4.504;2023-07-08T06:00:54;21.53;60.58
71177;DHT22;58877;51.992;4.504;2023-07-08T06:03:21;21.57;60.87
71177;DHT22;58877;51.992;4.504;2023-07-08T06:05:46;21.69;60.10
71177;DHT22;58877;51.992;4.504;2023-07-08T06:08:12;21.71;60.54
71177;DHT22;58877;51.992;4.504;2023-07-08T06:10:42;21.77;60.14
71177;DHT22;58877;51.992;4.504;2023-07-08T06:13:08;21.81;60.33
71177;DHT22;58877;51.992;4.504;2023-07-08T06:15:33;21.87;60.03
71177;DHT22;58877;51.992;4.504;2023-07-08T06:17:59;21.95;60.12
71177;DHT22;58877;51.992;4.504;2023-07-08T06:20:27;21.98;59.19
71177;DHT22;58877;51.992;4.504;2023-07-08T06:22:53;22.02;59.42
71177;DHT22;58877;51.992;4.504;2023-07-08T06:25:19;22.05;58.52
71177;DHT22;58877;51.992;4.504;2023-07-08T06:27:45;22.13;59.53
71177;DHT22;58877;51.992;4.504;2023-07-08T06:30:10;22.25;58.95
71177;DHT22;58877;51.992;4.504;2023-07-08T06:32:36;22.33;60.26
71177;DHT22;58877;51.992;4.504;2023-07-08T06:35:05;22.41;58.70
71177;DHT22;58877;51.992;4.504;2023-07-08T06:37:31;22.43;59.08
71177;DHT22;58877;51.992;4.504;2023-07-08T06:39:56;22.57;59.37
71177;DHT22;58877;51.992;4.504;2023-07-08T06:42:22;22.53;58.28
71177;DHT22;58877;51.992;4.504;2023-07-08T06:44:47;22.64;59.20
71177;DHT22;58877;51.992;4.504;2023-07-08T06:47:21;22.84;58.48
71177;DHT22;58877;51.992;4.504;2023-07-08T06:49:47;23.03;58.19
71177;DHT22;58877;51.992;4.504;2023-07-08T06:52:14;23.11;58.03
71177;DHT22;58877;51.992;4.504;2023-07-08T06:54:40;23.20;57.47
71177;DHT22;58877;51.992;4.504;2023-07-08T06:57:05;23.30;57.37
71177;DHT22;58877;51.992;4.504;2023-07-08T06:59:32;23.62;57.23
71177;DHT22;58877;51.992;4.504;2023-07-08T07:01:57;23.94;55.83
71177;DHT22;58877;51.992;4.504;2023-07-08T07:04:23;24.23;54.46
71177;DHT22;58877;51.992;4.504;2023-07-08T07:06:48;24.40;53.30
71177;DHT22;58877;51.992;4.504;2023-07-08T07:09:14;24.52;53.83
71177;DHT22;58877;51.992;4.504;2023-07-08T07:11:39;24.62;53.47
71177;DHT22;58877;51.992;4.504;2023-07-08T07:14:05;24.59;53.15
71177;DHT22;58877;51.992;4.504;2023-07-08T07:16:30;24.74;53.22
71177;DHT22;58877;51.992;4.504;2023-07-08T07:18:56;24.83;53.89
71177;DHT22;58877;51.992;4.504;2023-07-08T07:21:22;24.90;52.61
71177;DHT22;58877;51.992;4.504;2023-07-08T07:23:47;25.14;52.76
71177;DHT22;58877;51.992;4.504;2023-07-08T07:26:14;25.33;52.52
71177;DHT22;58877;51.992;4.504;2023-07-08T07:28:40;25.47;52.06
71177;DHT22;58877;51.992;4.504;2023-07-08T07:31:05;25.64;51.89
71177;DHT22;58877;51.992;4.504;2023-07-08T07:33:32;25.74;52.24
71177;DHT22;58877;51.992;4.504;2023-07-08T07:35:57;25.82;51.16
71177;DHT22;58877;51.992;4.504;2023-07-08T07:38:23;25.99;51.35
71177;DHT22;58877;51.992;4.504;2023-07-08T07:40:54;26.12;51.06
71177;DHT22;58877;51.992;4.504;2023-07-08T07:43:20;26.21;50.51
71177;DHT22;58877;51.992;4.504;2023-07-08T07:45:50;26.26;50.06
71177;DHT22;58877;51.992;4.504;2023-07-08T07:48:15;26.43;50.74
71177;DHT22;58877;51.992;4.504;2023-07-08T07:50:45;26.49;50.05
71177;DHT22;58877;51.992;4.504;2023-07-08T07:53:11;26.50;49.47
71177;DHT22;58877;51.992;4.504;2023-07-08T07:55:36;26.53;51.12
71177;DHT22;58877;51.992;4.504;2023-07-08T07:58:02;26.72;50.58
71177;DHT22;58877;51.992;4.504;2023-07-08T08:00:28;26.82;50.68
71177;DHT22;58877;51.992;4.504;2023-07-08T08:02:55;26.96;50.05
71177;DHT22;58877;51.992;4.504;2023-07-08T08:05:21;27.01;49.13
71177;DHT22;58877;51.992;4.504;2023-07-08T08:07:47;27.11;49.02
71177;DHT22;58877;51.992;4.504;2023-07-08T08:10:13;27.27;49.67
71177;DHT22;58877;51.992;4.504;2023-07-08T08:12:40;27.45;48.90
71177;DHT22;58877;51.992;4.504;2023-07-08T08:15:06;27.61;48.75
71177;DHT22;58877;51.992;4.504;2023-07-08T08:17:31;27.73;48.16
71177;DHT22;58877;51.992;4.504;2023-07-08T08:19:57;27.92;48.02
71177;DHT22;58877;51.992;4.504;2023-07-08T08:22:23;27.95;48.21
71177;DHT22;58877;51.992;4.504;2023-07-08T08:24:49;28.09;48.50
71177;DHT22;58877;51.992;4.504;2023-07-08T08:27:15;28.22;47.61
71177;DHT22;58877;51.992;4.504;2023-07-08T08:29:40;28.27;46.87
71177;DHT22;58877;51.992;4.504;2023-07-08T08:32:06;28.29;47.42
71177;DHT22;58877;51.992;4.504;2023-07-08T08:34:32;28.35;46.65
71177;DHT22;58877;51.992;4.504;2023-07-08T08:36:58;28.36;47.45
71177;DHT22;58877;51.992;4.504;2023-07-08T08:39:24;28.45;47.63
71177;DHT22;58877;51.992;4.504;2023-07-08T08:41:56;28.61;46.83
71177;DHT22;58877;51.992;4.504;2023-07-08T08:44:31;28.80;46.25
71177;DHT22;58877;51.992;4.504;2023-07-08T08:47:16;28.91;46.00
71177;DHT22;58877;51.992;4.504;2023-07-08T08:49:55;28.97;44.91
71177;DHT22;58877;51.992;4.504;2023-07-08T08:52:22;28.87;46.91
71177;DHT22;58877;51.992;4.504;2023-07-08T08:54:48;28.97;45.96
71177;DHT22;58877;51.992;4.504;2023-07-08T09:02:37;29.15;44.86
71177;DHT22;58877;51.992;4.504;2023-07-08T09:05:07;29.10;45.31
71177;DHT22;58877;51.992;4.504;2023-07-08T09:10:40;28.96;45.57
71177;DHT22;58877;51.992;4.504;2023-07-08T09:13:18;29.17;46.02
71177;DHT22;58877;51.992;4.504;2023-07-08T09:15:46;29.38;46.13
71177;DHT22;58877;51.992;4.504;2023-07-08T09:18:24;29.62;45.61
71177;DHT22;58877;51.992;4.504;2023-07-08T09:21:02;29.75;43.65
71177;DHT22;58877;51.992;4.504;2023-07-08T09:23:35;29.76;44.38
71177;DHT22;58877;51.992;4.504;2023-07-08T09:26:13;29.83;43.54
71177;DHT22;58877;51.992;4.504;2023-07-08T09:28:44;29.85;43.69
71177;DHT22;58877;51.992;4.504;2023-07-08T09:31:31;29.79;45.23
71177;DHT22;58877;51.992;4.504;2023-07-08T09:34:22;29.92;44.65
71177;DHT22;58877;51.992;4.504;2023-07-08T09:36:51;29.92;44.24
71177;DHT22;58877;51.992;4.504;2023-07-08T09:39:19;29.90;44.84
71177;DHT22;58877;51.992;4.504;2023-07-08T09:41:48;30.02;46.28
71177;DHT22;58877;51.992;4.504;2023-07-08T09:44:28;30.03;45.61
71177;DHT22;58877;51.992;4.504;2023-07-08T09:46:58;30.09;44.73
71177;DHT22;58877;51.992;4.504;2023-07-08T09:49:33;29.34;46.42
71177;DHT22;58877;51.992;4.504;2023-07-08T09:52:06;29.68;46.56
71177;DHT22;58877;51.992;4.504;2023-07-08T09:54:31;30.01;46.89
71177;DHT22;58877;51.992;4.504;2023-07-08T09:57:04;30.10;42.87
71177;DHT22;58877;51.992;4.504;2023-07-08T09:59:42;30.19;45.26
71177;DHT22;58877;51.992;4.504;2023-07-08T10:05:14;30.27;44.79
71177;DHT22;58877;51.992;4.504;2023-07-08T10:07:42;30.05;45.29
71177;DHT22;58877;51.992;4.504;2023-07-08T10:10:17;30.20;44.42
71177;DHT22;58877;51.992;4.504;2023-07-08T10:12:56;30.37;44.11
71177;DHT22;58877;51.992;4.504;2023-07-08T10:15:39;30.47;43.46
71177;DHT22;58877;51.992;4.504;2023-07-08T10:18:17;30.71;43.26
71177;DHT22;58877;51.992;4.504;2023-07-08T10:26:28;30.64;46.01
71177;DHT22;58877;51.992;4.504;2023-07-08T10:31:52;30.94;43.82
71177;DHT22;58877;51.992;4.504;2023-07-08T10:34:43;31.06;44.33
71177;DHT22;58877;51.992;4.504;2023-07-08T10:37:36;31.15;44.80
71177;DHT22;58877;51.992;4.504;2023-07-08T10:46:06;31.45;43.45
71177;DHT22;58877;51.992;4.504;2023-07-08T10:54:06;31.79;41.84
71177;DHT22;58877;51.992;4.504;2023-07-08T10:59:36;31.73;42.14
71177;DHT22;58877;51.992;4.504;2023-07-08T11:02:22;31.86;41.94
71177;DHT22;58877;51.992;4.504;2023-07-08T11:07:39;31.78;41.10
71177;DHT22;58877;51.992;4.504;2023-07-08T11:10:24;31.97;41.19
71177;DHT22;58877;51.992;4.504;2023-07-08T11:13:02;31.99;40.95
71177;DHT22;58877;51.992;4.504;2023-07-08T11:21:50;32.03;42.15
71177;DHT22;58877;51.992;4.504;2023-07-08T11:32:39;32.59;39.26
71177;DHT22;58877;51.992;4.504;2023-07-08T11:35:27;32.67;40.46
71177;DHT22;58877;51.992;4.504;2023-07-08T11:37:57;32.56;39.07
71177;DHT22;58877;51.992;4.504;2023-07-08T11:40:26;32.60;39.81
71177;DHT22;58877;51.992;4.504;2023-07-08T11:43:02;32.78;40.65
71177;DHT22;58877;51.992;4.504;2023-07-08T11:45:48;32.88;41.60
71177;DHT22;58877;51.992;4.504;2023-07-08T11:48:31;32.90;40.37
71177;DHT22;58877;51.992;4.504;2023-07-08T11:51:04;33.01;39.11
71177;DHT22;58877;51.992;4.504;2023-07-08T11:53:36;33.03;38.37
71177;DHT22;58877;51.992;4.504;2023-07-08T11:56:23;33.06;38.82
71177;DHT22;58877;51.992;4.504;2023-07-08T12:06:47;33.38;39.90
71177;DHT22;58877;51.992;4.504;2023-07-08T12:09:22;33.41;39.27
71177;DHT22;58877;51.992;4.504;2023-07-08T12:11:55;33.48;39.91
71177;DHT22;58877;51.992;4.504;2023-07-08T12:14:22;33.42;37.97
71177;DHT22;58877;51.992;4.504;2023-07-08T12:16:49;33.50;38.33
71177;DHT22;58877;51.992;4.504;2023-07-08T12:19:18;33.50;38.52
71177;DHT22;58877;51.992;4.504;2023-07-08T12:21:45;33.52;37.97
71177;DHT22;58877;51.992;4.504;2023-07-08T12:24:14;33.65;38.99
71177;DHT22;58877;51.992;4.504;2023-07-08T12:26:41;33.73;38.83
71177;DHT22;58877;51.992;4.504;2023-07-08T12:29:13;33.81;38.31
71177;DHT22;58877;51.992;4.504;2023-07-08T12:31:41;33.85;38.43
71177;DHT22;58877;51.992;4.504;2023-07-08T12:34:15;33.76;37.82
71177;DHT22;58877;51.992;4.504;2023-07-08T12:36:46;33.95;37.74
71177;DHT22;58877;51.992;4.504;2023-07-08T12:39:15;33.99;36.45
71177;DHT22;58877;51.992;4.504;2023-07-08T12:41:44;34.12;36.57
71177;DHT22;58877;51.992;4.504;2023-07-08T12:44:22;34.17;36.67
71177;DHT22;58877;51.992;4.504;2023-07-08T12:46:51;34.31;37.78
71177;DHT22;58877;51.992;4.504;2023-07-08T12:49:21;34.43;36.72
71177;DHT22;58877;51.992;4.504;2023-07-08T12:51:52;34.56;37.19
71177;DHT22;58877;51.992;4.504;2023-07-08T12:54:17;34.47;34.31
71177;DHT22;58877;51.992;4.504;2023-07-08T12:56:45;34.55;35.19
71177;DHT22;58877;51.992;4.504;2023-07-08T12:59:19;34.61;34.52
71177;DHT22;58877;51.992;4.504;2023-07-08T13:01:48;34.76;35.36
71177;DHT22;58877;51.992;4.504;2023-07-08T13:04:28;34.82;34.29
71177;DHT22;58877;51.992;4.504;2023-07-08T13:07:36;34.90;34.19
71177;DHT22;58877;51.992;4.504;2023-07-08T13:10:15;34.86;34.46
71177;DHT22;58877;51.992;4.504;2023-07-08T13:12:43;34.98;35.83
71177;DHT22;58877;51.992;4.504;2023-07-08T13:15:21;35.10;33.19
71177;DHT22;58877;51.992;4.504;2023-07-08T13:17:48;35.23;34.66
71177;DHT22;58877;51.992;4.504;2023-07-08T13:20:18;35.35;34.14
71177;DHT22;58877;51.992;4.504;2023-07-08T13:22:52;35.44;34.97
71177;DHT22;58877;51.992;4.504;2023-07-08T13:25:25;35.52;34.85
71177;DHT22;58877;51.992;4.504;2023-07-08T13:27:58;35.57;34.35
71177;DHT22;58877;51.992;4.504;2023-07-08T13:30:28;35.58;34.27
71177;DHT22;58877;51.992;4.504;2023-07-08T13:32:59;35.68;34.69
71177;DHT22;58877;51.992;4.504;2023-07-08T13:35:37;35.70;34.34
71177;DHT22;58877;51.992;4.504;2023-07-08T13:38:04;35.71;33.88
71177;DHT22;58877;51.992;4.504;2023-07-08T13:40:34;35.85;33.32
71177;DHT22;58877;51.992;4.504;2023-07-08T13:43:01;36.09;33.13
71177;DHT22;58877;51.992;4.504;2023-07-08T13:45:31;36.12;31.28
71177;DHT22;58877;51.992;4.504;2023-07-08T13:50:31;35.95;31.80
71177;DHT22;58877;51.992;4.504;2023-07-08T13:53:01;36.06;34.16
71177;DHT22;58877;51.992;4.504;2023-07-08T13:55:28;36.21;32.62
71177;DHT22;58877;51.992;4.504;2023-07-08T13:58:00;36.37;32.51
71177;DHT22;58877;51.992;4.504;2023-07-08T14:00:33;36.59;33.93
71177;DHT22;58877;51.992;4.504;2023-07-08T14:03:07;36.73;32.10
71177;DHT22;58877;51.992;4.504;2023-07-08T14:05:39;36.76;32.51
71177;DHT22;58877;51.992;4.504;2023-07-08T14:08:16;36.86;33.12
71177;DHT22;58877;51.992;4.504;2023-07-08T14:10:44;36.87;30.34
71177;DHT22;58877;51.992;4.504;2023-07-08T14:13:10;36.79;30.39
71177;DHT22;58877;51.992;4.504;2023-07-08T14:15:41;36.99;31.28
71177;DHT22;58877;51.992;4.504;2023-07-08T14:18:16;37.33;33.32
71177;DHT22;58877;51.992;4.504;2023-07-08T14:20:42;37.38;31.80
71177;DHT22;58877;51.992;4.504;2023-07-08T14:23:08;37.50;32.87
71177;DHT22;58877;51.992;4.504;2023-07-08T14:25:35;37.57;31.30
71177;DHT22;58877;51.992;4.504;2023-07-08T14:28:10;37.57;31.77
71177;DHT22;58877;51.992;4.504;2023-07-08T14:30:42;37.67;30.05
71177;DHT22;58877;51.992;4.504;2023-07-08T14:33:13;37.78;31.79
71177;DHT22;58877;51.992;4.504;2023-07-08T14:35:43;37.64;31.76
71177;DHT22;58877;51.992;4.504;2023-07-08T14:38:16;37.31;31.45
71177;DHT22;58877;51.992;4.504;2023-07-08T14:40:49;36.99;31.14
71177;DHT22;58877;51.992;4.504;2023-07-08T14:43:16;36.76;32.68
71177;DHT22;58877;51.992;4.504;2023-07-08T14:45:53;36.37;31.93
71177;DHT22;58877;51.992;4.504;2023-07-08T14:48:27;36.18;32.72
71177;DHT22;58877;51.992;4.504;2023-07-08T14:51:04;35.91;32.96
71177;DHT22;58877;51.992;4.504;2023-07-08T14:56:44;36.32;34.18
71177;DHT22;58877;51.992;4.504;2023-07-08T14:59:21;36.66;34.96
71177;DHT22;58877;51.992;4.504;2023-07-08T15:01:47;36.73;33.43
71177;DHT22;58877;51.992;4.504;2023-07-08T15:04:17;36.76;34.32
71177;DHT22;58877;51.992;4.504;2023-07-08T15:06:45;36.69;32.78
71177;DHT22;58877;51.992;4.504;2023-07-08T15:09:12;36.59;35.05
71177;DHT22;58877;51.992;4.504;2023-07-08T15:11:40;36.52;34.23
71177;DHT22;58877;51.992;4.504;2023-07-08T15:14:20;36.40;33.01
71177;DHT22;58877;51.992;4.504;2023-07-08T15:16:48;36.16;35.70
71177;DHT22;58877;51.992;4.504;2023-07-08T15:19:20;35.98;34.98
71177;DHT22;58877;51.992;4.504;2023-07-08T15:21:46;36.02;34.31
71177;DHT22;58877;51.992;4.504;2023-07-08T15:24:15;35.96;34.09
71177;DHT22;58877;51.992;4.504;2023-07-08T15:29:19;36.15;34.32
71177;DHT22;58877;51.992;4.504;2023-07-08T15:31:46;36.39;35.55
71177;DHT22;58877;51.992;4.504;2023-07-08T15:34:14;36.46;32.27
71177;DHT22;58877;51.992;4.504;2023-07-08T15:36:40;36.45;34.05
71177;DHT22;58877;51.992;4.504;2023-07-08T15:39:06;36.29;34.76
71177;DHT22;58877;51.992;4.504;2023-07-08T15:41:31;36.19;33.81
71177;DHT22;58877;51.992;4.504;2023-07-08T15:43:58;36.06;35.75
71177;DHT22;58877;51.992;4.504;2023-07-08T15:46:34;35.88;33.97
71177;DHT22;58877;51.992;4.504;2023-07-08T15:49:00;35.68;33.67
71177;DHT22;58877;51.992;4.504;2023-07-08T15:51:26;35.55;35.55
71177;DHT22;58877;51.992;4.504;2023-07-08T15:53:51;35.44;36.06
71177;DHT22;58877;51.992;4.504;2023-07-08T15:56:20;35.34;36.22
71177;DHT22;58877;51.992;4.504;2023-07-08T15:58:47;35.31;36.71
71177;DHT22;58877;51.992;4.504;2023-07-08T16:01:20;35.24;35.26
71177;DHT22;58877;51.992;4.504;2023-07-08T16:03:47;35.28;36.92
71177;DHT22;58877;51.992;4.504;2023-07-08T16:06:13;35.27;35.67
71177;DHT22;58877;51.992;4.504;2023-07-08T16:08:40;35.13;32.56
71177;DHT22;58877;51.992;4.504;2023-07-08T16:11:15;35.13;35.16
71177;DHT22;58877;51.992;4.504;2023-07-08T16:13:43;35.20;35.12
71177;DHT22;58877;51.992;4.504;2023-07-08T16:16:11;35.35;36.49
71177;DHT22;58877;51.992;4.504;2023-07-08T16:18:37;35.84;37.08
71177;DHT22;58877;51.992;4.504;2023-07-08T16:21:04;36.16;32.82
71177;DHT22;58877;51.992;4.504;2023-07-08T16:23:29;36.23;35.76
71177;DHT22;58877;51.992;4.504;2023-07-08T16:25:55;36.45;35.96
71177;DHT22;58877;51.992;4.504;2023-07-08T16:30:55;36.13;31.22
71177;DHT22;58877;51.992;4.504;2023-07-08T16:33:21;35.27;32.00
71177;DHT22;58877;51.992;4.504;2023-07-08T16:35:46;34.60;35.15
71177;DHT22;58877;51.992;4.504;2023-07-08T16:38:12;33.89;38.00
71177;DHT22;58877;51.992;4.504;2023-07-08T16:40:40;32.81;40.94
71177;DHT22;58877;51.992;4.504;2023-07-08T16:43:26;32.26;42.78
71177;DHT22;58877;51.992;4.504;2023-07-08T16:45:53;32.08;42.99
71177;DHT22;58877;51.992;4.504;2023-07-08T16:48:18;31.82;42.77
71177;DHT22;58877;51.992;4.504;2023-07-08T16:50:45;31.55;43.24
71177;DHT22;58877;51.992;4.504;2023-07-08T16:53:12;31.39;44.01
71177;DHT22;58877;51.992;4.504;2023-07-08T16:55:38;31.22;44.47
71177;DHT22;58877;51.992;4.504;2023-07-08T16:58:04;31.81;44.19
71177;DHT22;58877;51.992;4.504;2023-07-08T17:00:30;32.63;42.17
71177;DHT22;58877;51.992;4.504;2023-07-08T17:02:57;32.60;42.95